sensor_id;sensor_type;location;lat;lon;timestamp;pressure;altitude;pressure_sealevel;temperature;humidity
10079;BME280;5078;42.544;22.966;2023-02-17T00:00:35;94875.63;;;2.27;89.84
10079;BME280;5078;42.544;22.966;2023-02-17T00:03:05;94854.34;;;2.19;90.15
10079;BME280;5078;42.544;22.966;2023-02-17T00:05:31;94860.75;;;2.28;89.67
10079;BME280;5078;42.544;22.966;2023-02-17T00:07:58;94872.91;;;2.42;89.37
10079;BME280;5078;42.544;22.966;2023-02-17T00:10:25;94867.06;;;2.38;89.18
10079;BME280;5078;42.544;22.966;2023-02-17T00:12:51;94866.34;;;2.49;88.53
10079;BME280;5078;42.544;22.966;2023-02-17T00:15:19;94872.94;;;2.54;87.73
10079;BME280;5078;42.544;22.966;2023-02-17T00:17:46;94867.41;;;2.59;87.01
10079;BME280;5078;42.544;22.966;2023-02-17T00:20:14;94871.00;;;1.91;88.06
10079;BME280;5078;42.544;22.966;2023-02-17T00:22:40;94843.97;;;1.36;89.84
10079;BME280;5078;42.544;22.966;2023-02-17T00:25:07;94860.25;;;1.54;90.44
10079;BME280;5078;42.544;22.966;2023-02-17T00:27:34;94873.03;;;1.59;90.47
10079;BME280;5078;42.544;22.966;2023-02-17T00:30:01;94862.78;;;1.41;91.18
10079;BME280;5078;42.544;22.966;2023-02-17T00:32:27;94854.25;;;1.25;92.06
10079;BME280;5078;42.544;22.966;2023-02-17T00:34:54;94860.13;;;1.28;91.84
10079;BME280;5078;42.544;22.966;2023-02-17T00:37:24;94874.00;;;1.29;91.25
10079;BME280;5078;42.544;22.966;2023-02-17T00:39:51;94867.13;;;1.14;93.66
10079;BME280;5078;42.544;22.966;2023-02-17T00:42:18;94851.25;;;1.17;94.25
10079;BME280;5078;42.544;22.966;2023-02-17T00:44:45;94861.69;;;1.31;96.13
10079;BME280;5078;42.544;22.966;2023-02-17T00:47:11;94862.78;;;1.41;97.54
10079;BME280;5078;42.544;22.966;2023-02-17T00:49:38;94848.22;;;1.37;98.03
10079;BME280;5078;42.544;22.966;2023-02-17T00:52:05;94863.75;;;1.26;96.25
10079;BME280;5078;42.544;22.966;2023-02-17T00:54:33;94859.63;;;1.36;97.13
10079;BME280;5078;42.544;22.966;2023-02-17T00:57:00;94864.97;;;1.06;96.70
10079;BME280;5078;42.544;22.966;2023-02-17T00:59:27;94865.53;;;0.82;96.13
10079;BME280;5078;42.544;22.966;2023-02-17T01:01:53;94863.19;;;0.63;96.23
10079;BME280;5078;42.544;22.966;2023-02-17T01:04:20;94864.00;;;0.50;96.01
10079;BME280;5078;42.544;22.966;2023-02-17T01:06:47;94867.53;;;0.49;96.13
10079;BME280;5078;42.544;22.966;2023-02-17T01:09:13;94879.06;;;0.30;95.08
10079;BME280;5078;42.544;22.966;2023-02-17T01:11:42;94873.69;;;0.17;96.40
10079;BME280;5078;42.544;22.966;2023-02-17T01:14:11;94868.31;;;0.20;96.82
10079;BME280;5078;42.544;22.966;2023-02-17T01:16:40;94868.75;;;-0.17;98.23
10079;BME280;5078;42.544;22.966;2023-02-17T01:19:10;94854.03;;;-0.34;100.00
10079;BME280;5078;42.544;22.966;2023-02-17T01:21:37;94864.69;;;-0.23;100.00
10079;BME280;5078;42.544;22.966;2023-02-17T01:24:06;94863.84;;;-0.24;100.00
10079;BME280;5078;42.544;22.966;2023-02-17T01:26:34;94862.75;;;-0.35;100.00
10079;BME280;5078;42.544;22.966;2023-02-17T01:29:03;94871.69;;;-0.55;100.00
10079;BME280;5078;42.544;22.966;2023-02-17T01:31:30;94864.97;;;-0.44;100.00
10079;BME280;5078;42.544;22.966;2023-02-17T01:33:59;94864.47;;;-0.34;100.00
10079;BME280;5078;42.544;22.966;2023-02-17T01:36:26;94869.84;;;-0.53;100.00
10079;BME280;5078;42.544;22.966;2023-02-17T01:38:53;94863.28;;;-0.45;100.00
10079;BME280;5078;42.544;22.966;2023-02-17T01:41:22;94871.50;;;-0.36;100.00
10079;BME280;5078;42.544;22.966;2023-02-17T01:44:14;94861.81;;;-0.18;100.00
10079;BME280;5078;42.544;22.966;2023-02-17T01:46:42;94868.38;;;-0.11;100.00
10079;BME280;5078;42.544;22.966;2023-02-17T01:49:16;94863.16;;;-0.11;100.00
10079;BME280;5078;42.544;22.966;2023-02-17T01:51:47;94866.28;;;-0.20;100.00
10079;BME280;5078;42.544;22.966;2023-02-17T01:54:19;94865.72;;;-0.41;100.00
10079;BME280;5078;42.544;22.966;2023-02-17T01:56:48;94870.00;;;-0.40;100.00
10079;BME280;5078;42.544;22.966;2023-02-17T01:59:19;94865.88;;;-0.60;100.00
10079;BME280;5078;42.544;22.966;2023-02-17T02:01:47;94877.00;;;-0.57;100.00
10079;BME280;5078;42.544;22.966;2023-02-17T02:04:16;94865.97;;;-0.62;100.00
10079;BME280;5078;42.544;22.966;2023-02-17T02:06:45;94865.53;;;-0.86;100.00
10079;BME280;5078;42.544;22.966;2023-02-17T02:09:15;94873.75;;;-1.10;100.00
10079;BME280;5078;42.544;22.966;2023-02-17T02:11:46;94871.72;;;-1.04;100.00
10079;BME280;5078;42.544;22.966;2023-02-17T02:14:13;94863.72;;;-1.17;100.00
10079;BME280;5078;42.544;22.966;2023-02-17T02:16:47;94871.31;;;-1.30;100.00
10079;BME280;5078;42.544;22.966;2023-02-17T02:19:53;94871.81;;;-1.39;100.00
10079;BME280;5078;42.544;22.966;2023-02-17T02:22:56;94876.19;;;-1.57;100.00
10079;BME280;5078;42.544;22.966;2023-02-17T02:25:53;94867.63;;;-1.26;100.00
10079;BME280;5078;42.544;22.966;2023-02-17T02:28:31;94875.44;;;-1.26;100.00
10079;BME280;5078;42.544;22.966;2023-02-17T02:31:14;94874.28;;;-1.20;100.00
10079;BME280;5078;42.544;22.966;2023-02-17T02:33:49;94873.56;;;-1.06;100.00
10079;BME280;5078;42.544;22.966;2023-02-17T02:36:19;94866.47;;;-1.20;100.00
10079;BME280;5078;42.544;22.966;2023-02-17T02:38:52;94867.66;;;-1.10;100.00
10079;BME280;5078;42.544;22.966;2023-02-17T02:41:24;94872.16;;;-0.96;100.00
10079;BME280;5078;42.544;22.966;2023-02-17T02:43:52;94824.44;;;-1.79;100.00
10079;BME280;5078;42.544;22.966;2023-02-17T02:46:19;94870.06;;;-1.23;100.00
10079;BME280;5078;42.544;22.966;2023-02-17T02:48:48;94870.78;;;-1.19;100.00
10079;BME280;5078;42.544;22.966;2023-02-17T02:51:28;94866.34;;;-1.01;100.00
10079;BME280;5078;42.544;22.966;2023-02-17T02:54:14;94871.72;;;-1.04;100.00
10079;BME280;5078;42.544;22.966;2023-02-17T02:56:56;94866.94;;;-0.96;100.00
10079;BME280;5078;42.544;22.966;2023-02-17T02:59:39;94869.81;;;-0.85;100.00
10079;BME280;5078;42.544;22.966;2023-02-17T03:02:16;94878.56;;;-0.86;100.00
10079;BME280;5078;42.544;22.966;2023-02-17T03:04:50;94875.16;;;-1.04;100.00
10079;BME280;5078;42.544;22.966;2023-02-17T03:07:23;94869.72;;;-0.99;100.00
10079;BME280;5078;42.544;22.966;2023-02-17T03:09:53;94878.56;;;-0.86;100.00
10079;BME280;5078;42.544;22.966;2023-02-17T03:12:24;94868.31;;;-0.89;100.00
10079;BME280;5078;42.544;22.966;2023-02-17T03:14:54;94869.00;;;-0.70;100.00
10079;BME280;5078;42.544;22.966;2023-02-17T03:17:22;94871.75;;;-0.73;100.00
10079;BME280;5078;42.544;22.966;2023-02-17T03:19:50;94871.75;;;-0.89;100.00
10079;BME280;5078;42.544;22.966;2023-02-17T03:22:21;94881.03;;;-1.00;100.00
10079;BME280;5078;42.544;22.966;2023-02-17T03:24:51;94856.44;;;-1.11;100.00
10079;BME280;5078;42.544;22.966;2023-02-17T03:27:18;94877.66;;;-1.02;100.00
10079;BME280;5078;42.544;22.966;2023-02-17T03:29:44;94867.84;;;-1.46;100.00
10079;BME280;5078;42.544;22.966;2023-02-17T03:32:11;94869.97;;;-1.37;100.00
10079;BME280;5078;42.544;22.966;2023-02-17T03:34:38;94874.97;;;-1.17;100.00
10079;BME280;5078;42.544;22.966;2023-02-17T03:37:06;94865.28;;;-1.31;100.00
10079;BME280;5078;42.544;22.966;2023-02-17T03:39:32;94862.22;;;-1.05;100.00
10079;BME280;5078;42.544;22.966;2023-02-17T03:41:59;94870.06;;;-1.23;100.00
10079;BME280;5078;42.544;22.966;2023-02-17T03:44:26;94878.69;;;-1.05;100.00
10079;BME280;5078;42.544;22.966;2023-02-17T03:46:53;94880.00;;;-1.14;100.00
10079;BME280;5078;42.544;22.966;2023-02-17T03:49:20;94870.34;;;-1.45;100.00
10079;BME280;5078;42.544;22.966;2023-02-17T03:51:46;94870.78;;;-1.19;100.00
10079;BME280;5078;42.544;22.966;2023-02-17T03:54:15;94869.78;;;-1.17;100.00
10079;BME280;5078;42.544;22.966;2023-02-17T03:56:41;94874.94;;;-0.99;100.00
10079;BME280;5078;42.544;22.966;2023-02-17T03:59:08;94874.34;;;-0.89;100.00
10079;BME280;5078;42.544;22.966;2023-02-17T04:01:35;94879.22;;;-0.82;100.00
10079;BME280;5078;42.544;22.966;2023-02-17T04:04:02;94871.03;;;-0.75;100.00
10079;BME280;5078;42.544;22.966;2023-02-17T04:06:29;94871.59;;;-0.70;100.00
10079;BME280;5078;42.544;22.966;2023-02-17T04:08:55;94871.25;;;-0.63;100.00
10079;BME280;5078;42.544;22.966;2023-02-17T04:11:23;94870.25;;;-0.61;100.00
10079;BME280;5078;42.544;22.966;2023-02-17T04:13:50;94867.47;;;-0.58;100.00
10079;BME280;5078;42.544;22.966;2023-02-17T04:16:17;94859.19;;;-0.64;100.00
10079;BME280;5078;42.544;22.966;2023-02-17T04:18:44;94869.78;;;-1.01;100.00
10079;BME280;5078;42.544;22.966;2023-02-17T04:21:10;94869.59;;;-1.14;100.00
10079;BME280;5078;42.544;22.966;2023-02-17T04:23:37;94866.41;;;-1.19;100.00
10079;BME280;5078;42.544;22.966;2023-02-17T04:26:05;94857.47;;;-0.97;100.00
10079;BME280;5078;42.544;22.966;2023-02-17T04:28:36;94836.78;;;-1.49;100.00
10079;BME280;5078;42.544;22.966;2023-02-17T04:31:03;94866.50;;;-1.38;100.00
10079;BME280;5078;42.544;22.966;2023-02-17T04:33:30;94862.94;;;-1.53;100.00
10079;BME280;5078;42.544;22.966;2023-02-17T04:35:57;94853.13;;;-1.47;100.00
10079;BME280;5078;42.544;22.966;2023-02-17T04:38:25;94865.41;;;-1.84;100.00
10079;BME280;5078;42.544;22.966;2023-02-17T04:40:53;94865.94;;;-1.60;100.00
10079;BME280;5078;42.544;22.966;2023-02-17T04:43:20;94863.50;;;-1.81;100.00
10079;BME280;5078;42.544;22.966;2023-02-17T04:45:49;94864.19;;;-2.12;100.00
10079;BME280;5078;42.544;22.966;2023-02-17T04:48:16;94872.50;;;-2.05;100.00
10079;BME280;5078;42.544;22.966;2023-02-17T04:50:43;94864.72;;;-2.05;100.00
10079;BME280;5078;42.544;22.966;2023-02-17T04:53:09;94858.13;;;-1.78;100.00
10079;BME280;5078;42.544;22.966;2023-02-17T04:55:36;94858.66;;;-2.23;100.00
10079;BME280;5078;42.544;22.966;2023-02-17T04:58:03;94864.81;;;-1.89;100.00
10079;BME280;5078;42.544;22.966;2023-02-17T05:00:30;94861.34;;;-1.90;100.00
10079;BME280;5078;42.544;22.966;2023-02-17T05:02:58;94859.91;;;-1.96;100.00
10079;BME280;5078;42.544;22.966;2023-02-17T05:05:25;94869.13;;;-2.07;100.00
10079;BME280;5078;42.544;22.966;2023-02-17T05:07:52;94866.84;;;-2.13;100.00
10079;BME280;5078;42.544;22.966;2023-02-17T05:10:19;94872.69;;;-2.27;100.00
10079;BME280;5078;42.544;22.966;2023-02-17T05:12:45;94866.69;;;-2.10;100.00
10079;BME280;5078;42.544;22.966;2023-02-17T05:15:12;94872.81;;;-2.11;100.00
10079;BME280;5078;42.544;22.966;2023-02-17T05:17:39;94876.84;;;-2.23;100.00
10079;BME280;5078;42.544;22.966;2023-02-17T05:20:08;94878.22;;;-2.16;100.00
10079;BME280;5078;42.544;22.966;2023-02-17T05:22:36;94877.78;;;-2.24;100.00
10079;BME280;5078;42.544;22.966;2023-02-17T05:25:03;94878.81;;;-2.28;100.00
10079;BME280;5078;42.544;22.966;2023-02-17T05:27:30;94888.06;;;-2.23;100.00
10079;BME280;5078;42.544;22.966;2023-02-17T05:29:57;94890.25;;;-2.32;100.00
10079;BME280;5078;42.544;22.966;2023-02-17T05:32:24;94895.13;;;-2.44;100.00
10079;BME280;5078;42.544;22.966;2023-02-17T05:34:50;94890.75;;;-2.24;100.00
10079;BME280;5078;42.544;22.966;2023-02-17T05:37:18;94890.97;;;-2.29;100.00
10079;BME280;5078;42.544;22.966;2023-02-17T05:39:45;94884.19;;;-2.50;100.00
10079;BME280;5078;42.544;22.966;2023-02-17T05:42:12;94887.72;;;-2.70;100.00
10079;BME280;5078;42.544;22.966;2023-02-17T05:44:39;94903.81;;;-2.45;100.00
10079;BME280;5078;42.544;22.966;2023-02-17T05:47:05;94901.97;;;-2.24;100.00
10079;BME280;5078;42.544;22.966;2023-02-17T05:49:32;94897.63;;;-2.23;100.00
10079;BME280;5078;42.544;22.966;2023-02-17T05:51:59;94906.19;;;-2.21;100.00
10079;BME280;5078;42.544;22.966;2023-02-17T05:54:27;94908.03;;;-2.06;100.00
10079;BME280;5078;42.544;22.966;2023-02-17T05:56:54;94916.75;;;-2.07;100.00
10079;BME280;5078;42.544;22.966;2023-02-17T05:59:21;94916.50;;;-2.02;100.00
10079;BME280;5078;42.544;22.966;2023-02-17T06:01:47;94909.50;;;-2.00;100.00
10079;BME280;5078;42.544;22.966;2023-02-17T06:04:14;94917.84;;;-1.93;100.00
10079;BME280;5078;42.544;22.966;2023-02-17T06:06:41;94916.53;;;-1.85;100.00
10079;BME280;5078;42.544;22.966;2023-02-17T06:09:07;94924.88;;;-1.96;100.00
10079;BME280;5078;42.544;22.966;2023-02-17T06:11:35;94924.78;;;-2.11;100.00
10079;BME280;5078;42.544;22.966;2023-02-17T06:14:02;94927.19;;;-1.72;100.00
10079;BME280;5078;42.544;22.966;2023-02-17T06:16:29;94926.50;;;-1.58;100.00
10079;BME280;5078;42.544;22.966;2023-02-17T06:18:56;94927.44;;;-1.42;100.00
10079;BME280;5078;42.544;22.966;2023-02-17T06:21:24;94934.47;;;-1.44;100.00
10079;BME280;5078;42.544;22.966;2023-02-17T06:23:51;94933.13;;;-1.18;100.00
10079;BME280;5078;42.544;22.966;2023-02-17T06:26:18;94930.53;;;-1.18;100.00
10079;BME280;5078;42.544;22.966;2023-02-17T06:28:46;94929.88;;;-1.05;100.00
10079;BME280;5078;42.544;22.966;2023-02-17T06:31:13;94941.03;;;-0.86;100.00
10079;BME280;5078;42.544;22.966;2023-02-17T06:33:39;94934.59;;;-0.79;100.00
10079;BME280;5078;42.544;22.966;2023-02-17T06:36:07;94932.81;;;-0.62;100.00
10079;BME280;5078;42.544;22.966;2023-02-17T06:38:33;94953.34;;;-0.40;100.00
10079;BME280;5078;42.544;22.966;2023-02-17T06:41:00;94950.28;;;-0.31;100.00
10079;BME280;5078;42.544;22.966;2023-02-17T06:43:27;94953.31;;;-0.07;100.00
10079;BME280;5078;42.544;22.966;2023-02-17T06:45:55;94940.59;;;-0.45;100.00
10079;BME280;5078;42.544;22.966;2023-02-17T06:48:22;94943.53;;;-0.51;100.00
10079;BME280;5078;42.544;22.966;2023-02-17T06:50:48;94951.91;;;0.17;100.00
10079;BME280;5078;42.544;22.966;2023-02-17T06:53:15;94951.41;;;0.57;100.00
10079;BME280;5078;42.544;22.966;2023-02-17T06:55:42;94945.63;;;0.96;100.00
10079;BME280;5078;42.544;22.966;2023-02-17T06:58:09;94942.66;;;1.17;100.00
10079;BME280;5078;42.544;22.966;2023-02-17T07:00:36;94934.19;;;1.56;98.02
10079;BME280;5078;42.544;22.966;2023-02-17T07:03:04;94939.69;;;2.07;92.38
10079;BME280;5078;42.544;22.966;2023-02-17T07:05:33;94940.34;;;1.97;91.45
10079;BME280;5078;42.544;22.966;2023-02-17T07:08:01;94936.34;;;2.32;88.66
10079;BME280;5078;42.544;22.966;2023-02-17T07:10:27;94938.44;;;1.86;87.66
10079;BME280;5078;42.544;22.966;2023-02-17T07:12:57;94926.06;;;2.29;88.88
10079;BME280;5078;42.544;22.966;2023-02-17T07:15:24;94930.31;;;2.18;86.04
10079;BME280;5078;42.544;22.966;2023-02-17T07:17:50;94932.47;;;2.11;90.74
10079;BME280;5078;42.544;22.966;2023-02-17T07:20:19;94928.09;;;3.17;84.44
10079;BME280;5078;42.544;22.966;2023-02-17T07:22:46;94931.84;;;3.51;79.33
10079;BME280;5078;42.544;22.966;2023-02-17T07:25:12;94928.09;;;3.55;79.81
10079;BME280;5078;42.544;22.966;2023-02-17T07:27:40;94928.84;;;3.94;74.78
10079;BME280;5078;42.544;22.966;2023-02-17T07:30:07;94926.34;;;4.17;75.00
10079;BME280;5078;42.544;22.966;2023-02-17T07:32:34;94932.53;;;4.64;71.63
10079;BME280;5078;42.544;22.966;2023-02-17T07:35:01;94938.03;;;4.37;70.95
10079;BME280;5078;42.544;22.966;2023-02-17T07:37:29;94934.63;;;4.47;69.17
10079;BME280;5078;42.544;22.966;2023-02-17T07:39:56;94928.69;;;4.57;70.28
10079;BME280;5078;42.544;22.966;2023-02-17T07:42:23;94929.22;;;5.08;69.32
10079;BME280;5078;42.544;22.966;2023-02-17T07:44:50;94934.19;;;5.24;65.80
10079;BME280;5078;42.544;22.966;2023-02-17T07:47:17;94928.34;;;5.66;62.98
10079;BME280;5078;42.544;22.966;2023-02-17T07:49:44;94927.50;;;6.10;60.66
10079;BME280;5078;42.544;22.966;2023-02-17T07:52:11;94928.66;;;6.29;58.62
10079;BME280;5078;42.544;22.966;2023-02-17T07:54:39;94920.78;;;6.17;58.92
10079;BME280;5078;42.544;22.966;2023-02-17T07:57:05;94934.44;;;6.22;61.01
10079;BME280;5078;42.544;22.966;2023-02-17T07:59:32;94929.38;;;6.31;59.10
10079;BME280;5078;42.544;22.966;2023-02-17T08:01:59;94923.31;;;6.51;58.48
10079;BME280;5078;42.544;22.966;2023-02-17T08:04:26;94931.03;;;6.96;56.14
10079;BME280;5078;42.544;22.966;2023-02-17T08:06:53;94921.34;;;6.97;55.96
10079;BME280;5078;42.544;22.966;2023-02-17T08:09:19;94925.34;;;6.26;59.09
10079;BME280;5078;42.544;22.966;2023-02-17T08:12:07;94925.09;;;6.62;59.41
10079;BME280;5078;42.544;22.966;2023-02-17T08:14:55;94924.00;;;6.97;56.62
10079;BME280;5078;42.544;22.966;2023-02-17T08:17:22;94920.72;;;7.46;56.30
10079;BME280;5078;42.544;22.966;2023-02-17T08:19:49;94917.59;;;7.41;55.60
10079;BME280;5078;42.544;22.966;2023-02-17T08:22:15;94920.72;;;7.77;54.62
10079;BME280;5078;42.544;22.966;2023-02-17T08:24:42;94906.38;;;8.20;54.04
10079;BME280;5078;42.544;22.966;2023-02-17T08:27:11;94914.88;;;8.33;53.29
10079;BME280;5078;42.544;22.966;2023-02-17T08:29:38;94910.66;;;8.61;52.51
10079;BME280;5078;42.544;22.966;2023-02-17T08:32:05;94914.22;;;8.31;53.42
10079;BME280;5078;42.544;22.966;2023-02-17T08:34:32;94915.25;;;8.69;52.65
10079;BME280;5078;42.544;22.966;2023-02-17T08:36:59;94906.91;;;8.93;52.05
10079;BME280;5078;42.544;22.966;2023-02-17T08:39:26;94900.78;;;9.02;51.50
10079;BME280;5078;42.544;22.966;2023-02-17T08:41:53;94885.19;;;9.09;51.98
10079;BME280;5078;42.544;22.966;2023-02-17T08:44:21;94897.19;;;8.94;51.70
10079;BME280;5078;42.544;22.966;2023-02-17T08:46:50;94896.41;;;9.31;51.45
10079;BME280;5078;42.544;22.966;2023-02-17T08:49:21;94896.91;;;8.77;52.63
10079;BME280;5078;42.544;22.966;2023-02-17T08:51:49;94892.81;;;9.32;51.18
10079;BME280;5078;42.544;22.966;2023-02-17T08:54:17;94897.78;;;9.91;49.48
10079;BME280;5078;42.544;22.966;2023-02-17T08:56:44;94888.00;;;10.20;48.96
10079;BME280;5078;42.544;22.966;2023-02-17T08:59:11;94884.97;;;10.42;48.38
10079;BME280;5078;42.544;22.966;2023-02-17T09:01:41;94890.97;;;10.62;47.57
10079;BME280;5078;42.544;22.966;2023-02-17T09:04:10;94879.91;;;11.02;47.38
10079;BME280;5078;42.544;22.966;2023-02-17T09:06:39;94877.69;;;11.16;46.44
10079;BME280;5078;42.544;22.966;2023-02-17T09:09:08;94885.16;;;10.94;46.78
10079;BME280;5078;42.544;22.966;2023-02-17T09:11:35;94878.47;;;10.90;46.41
10079;BME280;5078;42.544;22.966;2023-02-17T09:14:03;94881.88;;;10.83;47.29
10079;BME280;5078;42.544;22.966;2023-02-17T09:16:29;94877.19;;;10.76;47.30
10079;BME280;5078;42.544;22.966;2023-02-17T09:18:58;94885.81;;;10.61;47.31
10079;BME280;5078;42.544;22.966;2023-02-17T09:21:25;94868.78;;;10.81;47.21
10079;BME280;5078;42.544;22.966;2023-02-17T09:23:52;94869.53;;;10.91;46.35
10079;BME280;5078;42.544;22.966;2023-02-17T09:26:19;94870.84;;;11.31;45.85
10079;BME280;5078;42.544;22.966;2023-02-17T09:28:47;94867.78;;;11.44;46.17
10079;BME280;5078;42.544;22.966;2023-02-17T09:31:16;94867.50;;;11.81;44.42
10079;BME280;5078;42.544;22.966;2023-02-17T09:33:43;94867.81;;;11.78;44.08
10079;BME280;5078;42.544;22.966;2023-02-17T09:36:15;94871.56;;;12.36;43.76
10079;BME280;5078;42.544;22.966;2023-02-17T09:38:42;94869.47;;;12.72;42.97
10079;BME280;5078;42.544;22.966;2023-02-17T09:41:15;94858.50;;;12.84;42.69
10079;BME280;5078;42.544;22.966;2023-02-17T09:43:43;94854.84;;;12.85;42.56
10079;BME280;5078;42.544;22.966;2023-02-17T09:46:13;94857.19;;;13.12;42.08
10079;BME280;5078;42.544;22.966;2023-02-17T09:48:43;94850.22;;;13.28;42.12
10079;BME280;5078;42.544;22.966;2023-02-17T09:51:18;94848.56;;;13.10;41.72
10079;BME280;5078;42.544;22.966;2023-02-17T09:53:51;94841.88;;;13.55;41.00
10079;BME280;5078;42.544;22.966;2023-02-17T09:56:23;94840.13;;;13.79;40.37
10079;BME280;5078;42.544;22.966;2023-02-17T09:58:52;94841.84;;;14.11;39.33
10079;BME280;5078;42.544;22.966;2023-02-17T10:01:28;94819.50;;;13.65;39.76
10079;BME280;5078;42.544;22.966;2023-02-17T10:04:01;94834.72;;;12.82;40.34
10079;BME280;5078;42.544;22.966;2023-02-17T10:06:33;94830.25;;;13.15;40.09
10079;BME280;5078;42.544;22.966;2023-02-17T10:09:06;94823.88;;;13.25;39.97
10079;BME280;5078;42.544;22.966;2023-02-17T10:11:39;94819.25;;;13.02;40.39
10079;BME280;5078;42.544;22.966;2023-02-17T10:14:11;94813.66;;;13.69;39.66
10079;BME280;5078;42.544;22.966;2023-02-17T10:16:47;94803.69;;;14.11;38.66
10079;BME280;5078;42.544;22.966;2023-02-17T10:19:19;94800.00;;;14.43;38.57
10079;BME280;5078;42.544;22.966;2023-02-17T10:21:54;94804.09;;;14.62;37.91
10079;BME280;5078;42.544;22.966;2023-02-17T10:24:23;94795.13;;;15.01;37.54
10079;BME280;5078;42.544;22.966;2023-02-17T10:26:59;94795.56;;;15.42;36.68
10079;BME280;5078;42.544;22.966;2023-02-17T10:29:41;94786.56;;;15.05;37.06
10079;BME280;5078;42.544;22.966;2023-02-17T10:32:20;94783.31;;;15.48;36.57
10079;BME280;5078;42.544;22.966;2023-02-17T10:34:54;94772.84;;;15.76;35.80
10079;BME280;5078;42.544;22.966;2023-02-17T10:37:29;94769.50;;;15.59;35.46
10079;BME280;5078;42.544;22.966;2023-02-17T10:40:02;94756.03;;;15.97;35.05
10079;BME280;5078;42.544;22.966;2023-02-17T10:42:34;94762.28;;;16.04;35.18
10079;BME280;5078;42.544;22.966;2023-02-17T10:45:04;94761.44;;;16.55;34.23
10079;BME280;5078;42.544;22.966;2023-02-17T10:47:34;94756.69;;;16.93;33.79
10079;BME280;5078;42.544;22.966;2023-02-17T10:50:05;94752.22;;;16.79;33.73
10079;BME280;5078;42.544;22.966;2023-02-17T10:52:41;94758.06;;;16.89;33.77
10079;BME280;5078;42.544;22.966;2023-02-17T10:55:22;94736.63;;;17.11;31.20
10079;BME280;5078;42.544;22.966;2023-02-17T10:57:56;94739.47;;;17.09;30.03
10079;BME280;5078;42.544;22.966;2023-02-17T11:00:25;94725.47;;;16.64;29.55
10079;BME280;5078;42.544;22.966;2023-02-17T11:02:55;94737.03;;;16.86;29.03
10079;BME280;5078;42.544;22.966;2023-02-17T11:05:28;94733.53;;;17.14;28.88
10079;BME280;5078;42.544;22.966;2023-02-17T11:07:59;94722.78;;;16.21;28.87
10079;BME280;5078;42.544;22.966;2023-02-17T11:10:29;94737.53;;;16.17;29.62
10079;BME280;5078;42.544;22.966;2023-02-17T11:12:58;94734.81;;;16.10;29.23
10079;BME280;5078;42.544;22.966;2023-02-17T11:15:29;94728.03;;;15.78;30.04
10079;BME280;5078;42.544;22.966;2023-02-17T11:17:59;94726.81;;;15.51;30.57
10079;BME280;5078;42.544;22.966;2023-02-17T11:20:33;94720.44;;;15.96;30.23
10079;BME280;5078;42.544;22.966;2023-02-17T11:23:05;94723.88;;;16.48;29.88
10079;BME280;5078;42.544;22.966;2023-02-17T11:25:33;94716.13;;;15.95;29.88
10079;BME280;5078;42.544;22.966;2023-02-17T11:28:04;94709.75;;;16.33;29.44
10079;BME280;5078;42.544;22.966;2023-02-17T11:30:33;94710.38;;;16.56;29.10
10079;BME280;5078;42.544;22.966;2023-02-17T11:33:10;94716.00;;;16.83;28.95
10079;BME280;5078;42.544;22.966;2023-02-17T11:35:47;94705.47;;;17.38;28.70
10079;BME280;5078;42.544;22.966;2023-02-17T11:38:17;94700.88;;;17.32;28.79
10079;BME280;5078;42.544;22.966;2023-02-17T11:40:53;94690.84;;;17.40;28.60
10079;BME280;5078;42.544;22.966;2023-02-17T11:43:20;94690.59;;;17.70;28.12
10079;BME280;5078;42.544;22.966;2023-02-17T11:45:59;94689.84;;;17.83;28.00
10079;BME280;5078;42.544;22.966;2023-02-17T11:48:54;94690.56;;;18.05;27.38
10079;BME280;5078;42.544;22.966;2023-02-17T11:51:27;94689.53;;;18.06;27.66
10079;BME280;5078;42.544;22.966;2023-02-17T11:54:03;94685.38;;;17.27;28.28
10079;BME280;5078;42.544;22.966;2023-02-17T11:56:37;94681.94;;;17.33;28.85
10079;BME280;5078;42.544;22.966;2023-02-17T11:59:25;94688.56;;;16.59;29.24
10079;BME280;5078;42.544;22.966;2023-02-17T12:02:15;94683.88;;;16.40;29.91
10079;BME280;5078;42.544;22.966;2023-02-17T12:04:52;94680.53;;;15.95;30.45
10079;BME280;5078;42.544;22.966;2023-02-17T12:07:45;94678.16;;;15.85;30.37
10079;BME280;5078;42.544;22.966;2023-02-17T12:10:22;94679.63;;;15.58;30.12
10079;BME280;5078;42.544;22.966;2023-02-17T12:12:59;94672.72;;;15.49;30.42
10079;BME280;5078;42.544;22.966;2023-02-17T12:15:36;94675.50;;;15.41;30.58
10079;BME280;5078;42.544;22.966;2023-02-17T12:18:18;94670.59;;;15.29;30.96
10079;BME280;5078;42.544;22.966;2023-02-17T12:20:55;94669.50;;;14.94;30.71
10079;BME280;5078;42.544;22.966;2023-02-17T12:23:33;94661.81;;;14.38;31.38
10079;BME280;5078;42.544;22.966;2023-02-17T12:26:14;94656.16;;;14.56;31.67
10079;BME280;5078;42.544;22.966;2023-02-17T12:28:58;94659.00;;;14.78;31.05
10079;BME280;5078;42.544;22.966;2023-02-17T12:31:40;94650.34;;;14.91;30.33
10079;BME280;5078;42.544;22.966;2023-02-17T12:34:20;94649.19;;;14.70;29.94
10079;BME280;5078;42.544;22.966;2023-02-17T12:36:48;94635.59;;;14.95;29.89
10079;BME280;5078;42.544;22.966;2023-02-17T12:39:18;94632.47;;;15.06;30.33
10079;BME280;5078;42.544;22.966;2023-02-17T12:41:51;94635.06;;;15.14;30.37
10079;BME280;5078;42.544;22.966;2023-02-17T12:44:21;94624.72;;;15.41;30.22
10079;BME280;5078;42.544;22.966;2023-02-17T12:46:51;94627.75;;;15.52;29.19
10079;BME280;5078;42.544;22.966;2023-02-17T12:49:25;94628.66;;;15.45;29.22
10079;BME280;5078;42.544;22.966;2023-02-17T12:51:56;94613.00;;;15.42;28.68
10079;BME280;5078;42.544;22.966;2023-02-17T12:54:29;94614.22;;;14.80;29.47
10079;BME280;5078;42.544;22.966;2023-02-17T12:57:12;94618.38;;;14.44;30.04
10079;BME280;5078;42.544;22.966;2023-02-17T12:59:41;94616.59;;;14.60;30.24
10079;BME280;5078;42.544;22.966;2023-02-17T13:02:10;94619.50;;;14.50;30.35
10079;BME280;5078;42.544;22.966;2023-02-17T13:04:38;94610.16;;;14.54;29.74
10079;BME280;5078;42.544;22.966;2023-02-17T13:07:22;94608.81;;;14.88;29.97
10079;BME280;5078;42.544;22.966;2023-02-17T13:09:52;94605.69;;;14.99;29.19
10079;BME280;5078;42.544;22.966;2023-02-17T13:12:36;94602.81;;;14.71;29.70